sensor_id;sensor_type;location;lat;lon;timestamp;pressure;altitude;pressure_sealevel;temperature;humidity
49949;BME280;35840;45.982;8.890;2024-02-14T00:00:08;98927.13;;;6.09;75.02
49949;BME280;35840;45.982;8.890;2024-02-14T00:02:45;98935.88;;;6.01;75.88
49949;BME280;35840;45.982;8.890;2024-02-14T00:05:16;98941.84;;;6.00;76.80
49949;BME280;35840;45.982;8.890;2024-02-14T00:07:43;98938.31;;;6.05;76.69
49949;BME280;35840;45.982;8.890;2024-02-14T00:10:10;98934.94;;;6.04;76.47
49949;BME280;35840;45.982;8.890;2024-02-14T00:12:37;98936.00;;;5.97;76.17
49949;BME280;35840;45.982;8.890;2024-02-14T00:15:05;98942.13;;;5.91;76.42
49949;BME280;35840;45.982;8.890;2024-02-14T00:17:34;98933.66;;;5.89;76.74
49949;BME280;35840;45.982;8.890;2024-02-14T00:20:02;98941.94;;;5.97;77.15
49949;BME280;35840;45.982;8.890;2024-02-14T00:22:30;98938.66;;;5.92;76.99
49949;BME280;35840;45.982;8.890;2024-02-14T00:24:57;98948.97;;;5.89;77.36
49949;BME280;35840;45.982;8.890;2024-02-14T00:27:24;98948.94;;;5.91;77.30
49949;BME280;35840;45.982;8.890;2024-02-14T00:29:53;98949.78;;;5.91;76.42
49949;BME280;35840;45.982;8.890;2024-02-14T00:32:21;98943.09;;;5.87;76.51
49949;BME280;35840;45.982;8.890;2024-02-14T00:34:48;98953.22;;;5.90;76.22
49949;BME280;35840;45.982;8.890;2024-02-14T00:37:17;98939.56;;;5.91;76.40
49949;BME280;35840;45.982;8.890;2024-02-14T00:39:43;98951.38;;;5.94;76.19
49949;BME280;35840;45.982;8.890;2024-02-14T00:42:10;98960.88;;;5.90;76.51
49949;BME280;35840;45.982;8.890;2024-02-14T00:44:37;98953.31;;;5.87;76.22
49949;BME280;35840;45.982;8.890;2024-02-14T00:47:04;98954.56;;;5.74;77.17
49949;BME280;35840;45.982;8.890;2024-02-14T00:49:34;98960.25;;;5.82;77.72
49949;BME280;35840;45.982;8.890;2024-02-14T00:52:02;98960.00;;;5.91;77.07
49949;BME280;35840;45.982;8.890;2024-02-14T00:54:28;98958.22;;;5.93;76.26
49949;BME280;35840;45.982;8.890;2024-02-14T00:56:55;98969.50;;;5.86;76.68
49949;BME280;35840;45.982;8.890;2024-02-14T00:59:22;98961.19;;;5.79;76.80
49949;BME280;35840;45.982;8.890;2024-02-14T01:01:51;98973.13;;;5.79;76.65
49949;BME280;35840;45.982;8.890;2024-02-14T01:04:18;98974.75;;;5.81;76.61
49949;BME280;35840;45.982;8.890;2024-02-14T01:06:45;98954.72;;;5.69;76.52
49949;BME280;35840;45.982;8.890;2024-02-14T01:09:12;98973.84;;;5.82;76.52
49949;BME280;35840;45.982;8.890;2024-02-14T01:11:39;98974.00;;;5.78;77.04
49949;BME280;35840;45.982;8.890;2024-02-14T01:14:06;98955.50;;;5.71;77.13
49949;BME280;35840;45.982;8.890;2024-02-14T01:16:33;98982.25;;;5.86;76.71
49949;BME280;35840;45.982;8.890;2024-02-14T01:19:00;98992.41;;;5.88;77.03
49949;BME280;35840;45.982;8.890;2024-02-14T01:21:27;98986.56;;;5.84;76.72
49949;BME280;35840;45.982;8.890;2024-02-14T01:23:54;98986.81;;;5.76;75.99
49949;BME280;35840;45.982;8.890;2024-02-14T01:26:21;98995.56;;;5.67;75.59
49949;BME280;35840;45.982;8.890;2024-02-14T01:28:47;98991.66;;;5.56;75.63
49949;BME280;35840;45.982;8.890;2024-02-14T01:31:15;98977.34;;;5.51;76.68
49949;BME280;35840;45.982;8.890;2024-02-14T01:33:42;98990.69;;;5.60;76.59
49949;BME280;35840;45.982;8.890;2024-02-14T01:36:09;98989.78;;;5.62;76.43
49949;BME280;35840;45.982;8.890;2024-02-14T01:38:36;98987.41;;;5.56;76.50
49949;BME280;35840;45.982;8.890;2024-02-14T01:41:04;98994.91;;;5.61;76.86
49949;BME280;35840;45.982;8.890;2024-02-14T01:43:31;98988.13;;;5.60;76.41
49949;BME280;35840;45.982;8.890;2024-02-14T01:46:05;98988.09;;;5.61;76.67
49949;BME280;35840;45.982;8.890;2024-02-14T01:48:35;98980.59;;;5.57;76.46
49949;BME280;35840;45.982;8.890;2024-02-14T01:51:03;98984.06;;;5.54;75.87
49949;BME280;35840;45.982;8.890;2024-02-14T01:53:31;98989.16;;;5.54;75.97
49949;BME280;35840;45.982;8.890;2024-02-14T01:55:59;98986.78;;;5.48;76.08
49949;BME280;35840;45.982;8.890;2024-02-14T01:58:27;98989.75;;;5.34;76.34
49949;BME280;35840;45.982;8.890;2024-02-14T02:00:56;99007.19;;;5.48;75.83
49949;BME280;35840;45.982;8.890;2024-02-14T02:03:26;99011.47;;;5.47;75.88
49949;BME280;35840;45.982;8.890;2024-02-14T02:05:53;99006.06;;;5.28;75.30
49949;BME280;35840;45.982;8.890;2024-02-14T02:08:21;99006.47;;;5.13;76.41
49949;BME280;35840;45.982;8.890;2024-02-14T02:10:48;99022.41;;;5.21;76.49
49949;BME280;35840;45.982;8.890;2024-02-14T02:13:16;99013.34;;;5.11;77.01
49949;BME280;35840;45.982;8.890;2024-02-14T02:15:43;99018.81;;;5.28;76.57
49949;BME280;35840;45.982;8.890;2024-02-14T02:18:13;99013.06;;;5.22;77.21
49949;BME280;35840;45.982;8.890;2024-02-14T02:20:42;99007.28;;;5.15;76.42
49949;BME280;35840;45.982;8.890;2024-02-14T02:23:12;99004.06;;;5.08;75.32
49949;BME280;35840;45.982;8.890;2024-02-14T02:25:42;99000.56;;;5.12;75.90
49949;BME280;35840;45.982;8.890;2024-02-14T02:28:09;99003.00;;;5.15;75.94
49949;BME280;35840;45.982;8.890;2024-02-14T02:30:36;98992.03;;;5.13;76.21
49949;BME280;35840;45.982;8.890;2024-02-14T02:33:04;98992.81;;;5.15;75.78
49949;BME280;35840;45.982;8.890;2024-02-14T02:35:32;98993.53;;;5.21;75.16
49949;BME280;35840;45.982;8.890;2024-02-14T02:37:59;98991.94;;;5.16;74.93
49949;BME280;35840;45.982;8.890;2024-02-14T02:40:26;98990.75;;;4.98;74.99
49949;BME280;35840;45.982;8.890;2024-02-14T02:42:56;99002.44;;;5.06;75.35
49949;BME280;35840;45.982;8.890;2024-02-14T02:45:23;98990.06;;;4.93;74.88
49949;BME280;35840;45.982;8.890;2024-02-14T02:47:50;98976.13;;;4.74;75.28
49949;BME280;35840;45.982;8.890;2024-02-14T02:50:20;98988.66;;;4.81;75.67
49949;BME280;35840;45.982;8.890;2024-02-14T02:52:48;99001.16;;;4.91;75.31
49949;BME280;35840;45.982;8.890;2024-02-14T02:55:15;98997.84;;;4.87;74.16
49949;BME280;35840;45.982;8.890;2024-02-14T02:57:45;98994.56;;;4.83;74.43
49949;BME280;35840;45.982;8.890;2024-02-14T03:00:13;98998.72;;;4.86;73.74
49949;BME280;35840;45.982;8.890;2024-02-14T03:02:40;99008.50;;;4.69;74.38
49949;BME280;35840;45.982;8.890;2024-02-14T03:05:13;99009.44;;;4.66;74.29
49949;BME280;35840;45.982;8.890;2024-02-14T03:07:46;99011.94;;;4.68;74.49
49949;BME280;35840;45.982;8.890;2024-02-14T03:10:14;99021.06;;;4.76;74.97
49949;BME280;35840;45.982;8.890;2024-02-14T03:12:46;99006.84;;;4.68;74.36
49949;BME280;35840;45.982;8.890;2024-02-14T03:15:14;99014.88;;;4.52;74.91
49949;BME280;35840;45.982;8.890;2024-02-14T03:17:41;98999.03;;;4.41;74.88
49949;BME280;35840;45.982;8.890;2024-02-14T03:20:12;99017.09;;;4.31;75.28
49949;BME280;35840;45.982;8.890;2024-02-14T03:22:44;99003.28;;;4.40;74.76
49949;BME280;35840;45.982;8.890;2024-02-14T03:25:19;99016.63;;;4.50;74.12
49949;BME280;35840;45.982;8.890;2024-02-14T03:27:47;99009.38;;;4.35;73.77
49949;BME280;35840;45.982;8.890;2024-02-14T03:30:16;99023.63;;;4.42;74.37
49949;BME280;35840;45.982;8.890;2024-02-14T03:32:45;99023.63;;;4.42;74.27
49949;BME280;35840;45.982;8.890;2024-02-14T03:35:12;99018.38;;;4.48;73.44
49949;BME280;35840;45.982;8.890;2024-02-14T03:37:41;99020.09;;;4.47;74.02
49949;BME280;35840;45.982;8.890;2024-02-14T03:40:08;99022.63;;;4.47;74.15
49949;BME280;35840;45.982;8.890;2024-02-14T03:42:36;99026.19;;;4.40;73.47
49949;BME280;35840;45.982;8.890;2024-02-14T03:45:07;99025.84;;;4.20;74.39
49949;BME280;35840;45.982;8.890;2024-02-14T03:47:35;99025.13;;;4.14;75.10
49949;BME280;35840;45.982;8.890;2024-02-14T03:50:07;99005.19;;;3.96;73.96
49949;BME280;35840;45.982;8.890;2024-02-14T03:52:34;99028.69;;;4.07;75.11
49949;BME280;35840;45.982;8.890;2024-02-14T03:55:02;99042.75;;;4.22;75.29
49949;BME280;35840;45.982;8.890;2024-02-14T03:57:29;99036.88;;;4.20;74.38
49949;BME280;35840;45.982;8.890;2024-02-14T03:59:59;99043.09;;;4.08;74.73
49949;BME280;35840;45.982;8.890;2024-02-14T04:02:37;99050.44;;;4.19;74.55
49949;BME280;35840;45.982;8.890;2024-02-14T04:05:07;99039.50;;;4.17;73.65
49949;BME280;35840;45.982;8.890;2024-02-14T04:07:34;99055.81;;;4.07;74.34
49949;BME280;35840;45.982;8.890;2024-02-14T04:10:01;99054.94;;;4.08;74.06
49949;BME280;35840;45.982;8.890;2024-02-14T04:12:28;99066.72;;;4.12;73.52
49949;BME280;35840;45.982;8.890;2024-02-14T04:14:55;99043.16;;;4.04;73.43
49949;BME280;35840;45.982;8.890;2024-02-14T04:17:22;99057.38;;;4.14;72.89
49949;BME280;35840;45.982;8.890;2024-02-14T04:19:49;99063.44;;;4.07;73.45
49949;BME280;35840;45.982;8.890;2024-02-14T04:22:16;99071.00;;;4.11;72.61
49949;BME280;35840;45.982;8.890;2024-02-14T04:24:43;99068.03;;;3.91;74.53
49949;BME280;35840;45.982;8.890;2024-02-14T04:27:10;99059.78;;;3.81;74.33
49949;BME280;35840;45.982;8.890;2024-02-14T04:29:37;99069.88;;;3.86;74.53
49949;BME280;35840;45.982;8.890;2024-02-14T04:32:03;99057.22;;;3.81;74.06
49949;BME280;35840;45.982;8.890;2024-02-14T04:34:31;99081.59;;;3.93;73.30
49949;BME280;35840;45.982;8.890;2024-02-14T04:36:58;99083.00;;;4.05;73.41
49949;BME280;35840;45.982;8.890;2024-02-14T04:39:25;99083.94;;;4.01;72.83
49949;BME280;35840;45.982;8.890;2024-02-14T04:41:52;99069.59;;;3.98;72.53
49949;BME280;35840;45.982;8.890;2024-02-14T04:44:28;99075.38;;;3.64;73.58
49949;BME280;35840;45.982;8.890;2024-02-14T04:46:56;99066.16;;;3.61;73.76
49949;BME280;35840;45.982;8.890;2024-02-14T04:49:25;99067.56;;;3.75;73.73
49949;BME280;35840;45.982;8.890;2024-02-14T04:51:52;99080.88;;;3.86;73.40
49949;BME280;35840;45.982;8.890;2024-02-14T04:54:19;99069.09;;;3.82;73.95
49949;BME280;35840;45.982;8.890;2024-02-14T04:56:46;99049.22;;;3.60;74.18
49949;BME280;35840;45.982;8.890;2024-02-14T04:59:16;99082.03;;;3.71;74.09
49949;BME280;35840;45.982;8.890;2024-02-14T05:01:43;99074.53;;;3.65;73.43
49949;BME280;35840;45.982;8.890;2024-02-14T05:04:10;99068.63;;;3.65;73.29
49949;BME280;35840;45.982;8.890;2024-02-14T05:06:37;99082.03;;;3.71;73.86
49949;BME280;35840;45.982;8.890;2024-02-14T05:09:05;99076.25;;;3.65;74.29
49949;BME280;35840;45.982;8.890;2024-02-14T05:11:32;99058.00;;;3.44;74.45
49949;BME280;35840;45.982;8.890;2024-02-14T05:13:59;99067.09;;;3.56;75.05
49949;BME280;35840;45.982;8.890;2024-02-14T05:16:28;99052.81;;;3.50;74.70
49949;BME280;35840;45.982;8.890;2024-02-14T05:18:54;99073.81;;;3.58;74.79
49949;BME280;35840;45.982;8.890;2024-02-14T05:21:22;99071.47;;;3.49;75.36
49949;BME280;35840;45.982;8.890;2024-02-14T05:23:49;99068.84;;;3.52;74.46
49949;BME280;35840;45.982;8.890;2024-02-14T05:26:16;99065.47;;;3.53;73.84
49949;BME280;35840;45.982;8.890;2024-02-14T05:28:43;99075.66;;;3.52;73.64
49949;BME280;35840;45.982;8.890;2024-02-14T05:31:10;99067.78;;;3.62;73.84
49949;BME280;35840;45.982;8.890;2024-02-14T05:33:37;99073.59;;;3.69;73.66
49949;BME280;35840;45.982;8.890;2024-02-14T05:36:04;99080.50;;;3.62;74.59
49949;BME280;35840;45.982;8.890;2024-02-14T05:38:32;99068.75;;;3.57;74.74
49949;BME280;35840;45.982;8.890;2024-02-14T05:41:01;99087.22;;;3.67;73.99
49949;BME280;35840;45.982;8.890;2024-02-14T05:43:28;99087.25;;;3.65;73.78
49949;BME280;35840;45.982;8.890;2024-02-14T05:45:55;99081.59;;;3.51;73.68
49949;BME280;35840;45.982;8.890;2024-02-14T05:48:22;99080.06;;;3.43;74.28
49949;BME280;35840;45.982;8.890;2024-02-14T05:50:49;99084.41;;;3.37;74.66
49949;BME280;35840;45.982;8.890;2024-02-14T05:53:16;99085.19;;;3.40;74.15
49949;BME280;35840;45.982;8.890;2024-02-14T05:55:43;99091.06;;;3.44;74.58
49949;BME280;35840;45.982;8.890;2024-02-14T05:58:10;99093.53;;;3.47;74.47
49949;BME280;35840;45.982;8.890;2024-02-14T06:00:37;99091.06;;;3.44;74.48
49949;BME280;35840;45.982;8.890;2024-02-14T06:03:05;99100.59;;;3.33;73.62
49949;BME280;35840;45.982;8.890;2024-02-14T06:05:34;99094.25;;;3.08;74.61
49949;BME280;35840;45.982;8.890;2024-02-14T06:08:01;99100.09;;;3.14;74.85
49949;BME280;35840;45.982;8.890;2024-02-14T06:10:30;99115.00;;;3.32;75.25
49949;BME280;35840;45.982;8.890;2024-02-14T06:12:56;99104.88;;;3.31;74.82
49949;BME280;35840;45.982;8.890;2024-02-14T06:15:23;99099.09;;;3.22;74.88
49949;BME280;35840;45.982;8.890;2024-02-14T06:17:50;99116.88;;;3.22;74.47
49949;BME280;35840;45.982;8.890;2024-02-14T06:20:17;99119.53;;;3.15;74.62
49949;BME280;35840;45.982;8.890;2024-02-14T06:22:45;99128.75;;;3.20;75.08
49949;BME280;35840;45.982;8.890;2024-02-14T06:25:23;99138.72;;;3.31;74.81
49949;BME280;35840;45.982;8.890;2024-02-14T06:27:50;99135.53;;;3.21;75.25
49949;BME280;35840;45.982;8.890;2024-02-14T06:30:16;99138.00;;;3.24;75.12
49949;BME280;35840;45.982;8.890;2024-02-14T06:32:44;99141.25;;;3.33;74.46
49949;BME280;35840;45.982;8.890;2024-02-14T06:35:12;99143.75;;;3.34;73.92
49949;BME280;35840;45.982;8.890;2024-02-14T06:37:42;99150.72;;;3.23;74.48
49949;BME280;35840;45.982;8.890;2024-02-14T06:40:22;99160.78;;;3.31;74.39
49949;BME280;35840;45.982;8.890;2024-02-14T06:42:48;99163.38;;;3.27;74.05
49949;BME280;35840;45.982;8.890;2024-02-14T06:45:17;99177.72;;;3.30;74.31
49949;BME280;35840;45.982;8.890;2024-02-14T06:47:44;99183.34;;;2.96;75.34
49949;BME280;35840;45.982;8.890;2024-02-14T06:50:11;99169.91;;;2.91;75.67
49949;BME280;35840;45.982;8.890;2024-02-14T06:52:38;99173.25;;;2.93;75.34
49949;BME280;35840;45.982;8.890;2024-02-14T06:55:05;99170.41;;;3.12;75.00
49949;BME280;35840;45.982;8.890;2024-02-14T06:57:31;99171.19;;;3.17;74.40
49949;BME280;35840;45.982;8.890;2024-02-14T06:59:58;99173.00;;;3.08;74.99
49949;BME280;35840;45.982;8.890;2024-02-14T07:02:25;99173.66;;;3.20;75.11
49949;BME280;35840;45.982;8.890;2024-02-14T07:04:55;99191.31;;;3.29;75.20
49949;BME280;35840;45.982;8.890;2024-02-14T07:07:21;99178.25;;;2.98;77.02
49949;BME280;35840;45.982;8.890;2024-02-14T07:09:48;99194.13;;;3.12;76.71
49949;BME280;35840;45.982;8.890;2024-02-14T07:12:15;99198.31;;;3.16;76.18
49949;BME280;35840;45.982;8.890;2024-02-14T07:14:42;99179.25;;;2.89;77.23
49949;BME280;35840;45.982;8.890;2024-02-14T07:17:09;99202.72;;;3.05;77.34
49949;BME280;35840;45.982;8.890;2024-02-14T07:19:36;99189.81;;;3.16;77.10
49949;BME280;35840;45.982;8.890;2024-02-14T07:22:05;99194.75;;;3.25;76.03
49949;BME280;35840;45.982;8.890;2024-02-14T07:24:32;99203.09;;;3.32;76.22
49949;BME280;35840;45.982;8.890;2024-02-14T07:26:59;99206.47;;;3.34;75.90
49949;BME280;35840;45.982;8.890;2024-02-14T07:29:25;99198.22;;;3.21;76.91
49949;BME280;35840;45.982;8.890;2024-02-14T07:31:52;99210.72;;;3.32;76.33
49949;BME280;35840;45.982;8.890;2024-02-14T07:34:19;99204.75;;;3.34;76.27
49949;BME280;35840;45.982;8.890;2024-02-14T07:36:46;99203.91;;;3.34;77.08
49949;BME280;35840;45.982;8.890;2024-02-14T07:39:13;99199.63;;;3.36;77.89
49949;BME280;35840;45.982;8.890;2024-02-14T07:41:40;99197.88;;;3.41;78.48
49949;BME280;35840;45.982;8.890;2024-02-14T07:44:07;99198.66;;;3.43;78.22
49949;BME280;35840;45.982;8.890;2024-02-14T07:46:34;99217.06;;;3.57;78.91
49949;BME280;35840;45.982;8.890;2024-02-14T07:49:01;99215.44;;;3.53;79.12
49949;BME280;35840;45.982;8.890;2024-02-14T07:51:28;99219.44;;;3.67;79.57
49949;BME280;35840;45.982;8.890;2024-02-14T07:53:55;99201.56;;;3.70;79.15
49949;BME280;35840;45.982;8.890;2024-02-14T07:56:22;99203.91;;;3.81;79.44
49949;BME280;35840;45.982;8.890;2024-02-14T07:58:49;99214.03;;;3.84;80.10
49949;BME280;35840;45.982;8.890;2024-02-14T08:01:16;99208.84;;;3.90;79.56
49949;BME280;35840;45.982;8.890;2024-02-14T08:03:43;99206.09;;;3.99;79.78
49949;BME280;35840;45.982;8.890;2024-02-14T08:06:13;99207.50;;;4.14;77.99
49949;BME280;35840;45.982;8.890;2024-02-14T08:08:40;99204.91;;;4.17;77.77
49949;BME280;35840;45.982;8.890;2024-02-14T08:11:07;99214.06;;;4.24;78.04
49949;BME280;35840;45.982;8.890;2024-02-14T08:13:34;99206.75;;;4.09;79.41
49949;BME280;35840;45.982;8.890;2024-02-14T08:16:01;99213.16;;;4.28;78.04
49949;BME280;35840;45.982;8.890;2024-02-14T08:18:28;99207.09;;;4.34;77.69
49949;BME280;35840;45.982;8.890;2024-02-14T08:20:55;99212.00;;;4.42;78.57
49949;BME280;35840;45.982;8.890;2024-02-14T08:23:22;99195.84;;;4.44;78.14
49949;BME280;35840;45.982;8.890;2024-02-14T08:25:49;99210.81;;;4.58;78.35
49949;BME280;35840;45.982;8.890;2024-02-14T08:28:16;99207.31;;;4.62;77.36
49949;BME280;35840;45.982;8.890;2024-02-14T08:30:44;99208.81;;;4.71;75.20
49949;BME280;35840;45.982;8.890;2024-02-14T08:33:11;99198.56;;;4.74;75.45
49949;BME280;35840;45.982;8.890;2024-02-14T08:35:39;99189.03;;;4.82;74.20
49949;BME280;35840;45.982;8.890;2024-02-14T08:38:09;99193.03;;;4.93;72.28
49949;BME280;35840;45.982;8.890;2024-02-14T08:40:36;99191.34;;;4.93;71.12
49949;BME280;35840;45.982;8.890;2024-02-14T08:43:03;99198.00;;;4.99;71.48
49949;BME280;35840;45.982;8.890;2024-02-14T08:45:31;99199.66;;;5.00;72.20
49949;BME280;35840;45.982;8.890;2024-02-14T08:47:58;99206.47;;;4.99;73.81
49949;BME280;35840;45.982;8.890;2024-02-14T08:50:25;99198.63;;;5.07;72.75
49949;BME280;35840;45.982;8.890;2024-02-14T08:52:52;99196.13;;;5.06;72.70
49949;BME280;35840;45.982;8.890;2024-02-14T08:55:19;99195.09;;;5.13;72.18
49949;BME280;35840;45.982;8.890;2024-02-14T08:57:46;99182.53;;;5.05;72.51
49949;BME280;35840;45.982;8.890;2024-02-14T09:00:15;99194.31;;;5.11;72.56
49949;BME280;35840;45.982;8.890;2024-02-14T09:02:46;99194.59;;;4.98;74.60
49949;BME280;35840;45.982;8.890;2024-02-14T09:05:16;99195.31;;;5.04;74.62
49949;BME280;35840;45.982;8.890;2024-02-14T09:07:44;99189.31;;;5.06;75.01
49949;BME280;35840;45.982;8.890;2024-02-14T09:10:11;99184.97;;;5.10;74.83
49949;BME280;35840;45.982;8.890;2024-02-14T09:12:42;99173.19;;;5.06;74.43
49949;BME280;35840;45.982;8.890;2024-02-14T09:15:09;99206.59;;;5.29;74.03
49949;BME280;35840;45.982;8.890;2024-02-14T09:17:36;99208.28;;;5.30;72.84
49949;BME280;35840;45.982;8.890;2024-02-14T09:20:04;99176.00;;;5.29;70.24
49949;BME280;35840;45.982;8.890;2024-02-14T09:22:37;99190.13;;;5.41;71.02
49949;BME280;35840;45.982;8.890;2024-02-14T09:25:05;99206.84;;;5.53;70.27
49949;BME280;35840;45.982;8.890;2024-02-14T09:27:32;99195.69;;;5.57;69.56
49949;BME280;35840;45.982;8.890;2024-02-14T09:30:01;99195.25;;;5.73;68.96
49949;BME280;35840;45.982;8.890;2024-02-14T09:32:30;99186.63;;;5.77;68.99
49949;BME280;35840;45.982;8.890;2024-02-14T09:35:01;99186.56;;;5.80;68.91
49949;BME280;35840;45.982;8.890;2024-02-14T09:37:30;99182.78;;;5.93;67.99
49949;BME280;35840;45.982;8.890;2024-02-14T09:39:57;99183.66;;;5.92;67.82
49949;BME280;35840;45.982;8.890;2024-02-14T09:42:35;99175.03;;;5.98;66.36
49949;BME280;35840;45.982;8.890;2024-02-14T09:45:04;99172.44;;;5.99;64.14
49949;BME280;35840;45.982;8.890;2024-02-14T09:47:32;99175.09;;;5.95;64.36
49949;BME280;35840;45.982;8.890;2024-02-14T09:50:01;99174.25;;;5.94;63.90
49949;BME280;35840;45.982;8.890;2024-02-14T09:52:32;99182.69;;;5.98;63.51
49949;BME280;35840;45.982;8.890;2024-02-14T09:55:01;99178.38;;;6.00;62.85
49949;BME280;35840;45.982;8.890;2024-02-14T09:57:29;99186.56;;;6.11;62.22
49949;BME280;35840;45.982;8.890;2024-02-14T09:59:58;99186.75;;;6.33;64.23
49949;BME280;35840;45.982;8.890;2024-02-14T10:02:26;99185.34;;;6.53;65.71
49949;BME280;35840;45.982;8.890;2024-02-14T10:04:53;99181.22;;;6.76;67.14
49949;BME280;35840;45.982;8.890;2024-02-14T10:07:20;99174.25;;;6.81;66.86
49949;BME280;35840;45.982;8.890;2024-02-14T10:09:47;99173.41;;;6.80;64.17
49949;BME280;35840;45.982;8.890;2024-02-14T10:12:15;99172.75;;;6.75;62.85
49949;BME280;35840;45.982;8.890;2024-02-14T10:14:42;99171.56;;;6.85;60.21
49949;BME280;35840;45.982;8.890;2024-02-14T10:17:17;99158.50;;;6.93;58.64
49949;BME280;35840;45.982;8.890;2024-02-14T10:19:57;99164.75;;;7.11;57.69
49949;BME280;35840;45.982;8.890;2024-02-14T10:22:25;99170.09;;;7.30;56.89
49949;BME280;35840;45.982;8.890;2024-02-14T10:24:58;99161.25;;;7.39;56.60
49949;BME280;35840;45.982;8.890;2024-02-14T10:27:26;99160.63;;;7.32;56.35
49949;BME280;35840;45.982;8.890;2024-02-14T10:29:56;99152.25;;;7.52;58.93
49949;BME280;35840;45.982;8.890;2024-02-14T10:32:23;99154.22;;;7.69;64.14
49949;BME280;35840;45.982;8.890;2024-02-14T10:34:51;99158.16;;;7.80;62.86
49949;BME280;35840;45.982;8.890;2024-02-14T10:37:20;99160.34;;;8.13;61.22
49949;BME280;35840;45.982;8.890;2024-02-14T10:39:49;99164.09;;;8.26;59.04
49949;BME280;35840;45.982;8.890;2024-02-14T10:42:19;99164.97;;;8.26;56.91
49949;BME280;35840;45.982;8.890;2024-02-14T10:44:46;99165.53;;;8.33;53.99
49949;BME280;35840;45.982;8.890;2024-02-14T10:47:19;99163.34;;;8.24;51.78
49949;BME280;35840;45.982;8.890;2024-02-14T10:49:48;99164.78;;;8.31;54.06
49949;BME280;35840;45.982;8.890;2024-02-14T10:52:18;99166.72;;;8.48;53.19
49949;BME280;35840;45.982;8.890;2024-02-14T10:54:52;99161.53;;;8.50;53.33
49949;BME280;35840;45.982;8.890;2024-02-14T10:57:27;99173.81;;;8.40;52.82
49949;BME280;35840;45.982;8.890;2024-02-14T10:59:56;99172.94;;;8.41;55.46
49949;BME280;35840;45.982;8.890;2024-02-14T11:02:24;99169.00;;;8.32;55.68
49949;BME280;35840;45.982;8.890;2024-02-14T11:04:51;99159.53;;;8.34;57.38
49949;BME280;35840;45.982;8.890;2024-02-14T11:07:20;99167.69;;;8.44;57.16
49949;BME280;35840;45.982;8.890;2024-02-14T11:10:12;99168.41;;;8.49;56.69
49949;BME280;35840;45.982;8.890;2024-02-14T11:12:40;99145.38;;;8.48;57.67
49949;BME280;35840;45.982;8.890;2024-02-14T11:17:39;99147.50;;;8.58;57.50
49949;BME280;35840;45.982;8.890;2024-02-14T11:23:02;99144.88;;;8.82;52.79
49949;BME280;35840;45.982;8.890;2024-02-14T11:25:33;99139.28;;;8.72;51.64
49949;BME280;35840;45.982;8.890;2024-02-14T11:28:19;99137.59;;;8.71;51.53
49949;BME280;35840;45.982;8.890;2024-02-14T11:30:50;99135.09;;;8.70;51.16
49949;BME280;35840;45.982;8.890;2024-02-14T11:33:23;99134.16;;;8.72;51.60
49949;BME280;35840;45.982;8.890;2024-02-14T11:35:52;99129.78;;;8.74;52.55
49949;BME280;35840;45.982;8.890;2024-02-14T11:38:20;99136.78;;;8.91;51.71
49949;BME280;35840;45.982;8.890;2024-02-14T11:40:48;99128.34;;;9.10;51.11
49949;BME280;35840;45.982;8.890;2024-02-14T11:43:17;99123.78;;;9.17;51.17
49949;BME280;35840;45.982;8.890;2024-02-14T11:45:44;99110.00;;;8.99;50.58
49949;BME280;35840;45.982;8.890;2024-02-14T11:48:21;99125.22;;;9.03;51.07
49949;BME280;35840;45.982;8.890;2024-02-14T11:50:48;99122.00;;;9.19;50.45
49949;BME280;35840;45.982;8.890;2024-02-14T11:53:15;99114.94;;;9.24;51.25
49949;BME280;35840;45.982;8.890;2024-02-14T11:55:46;99113.22;;;9.24;50.29
49949;BME280;35840;45.982;8.890;2024-02-14T11:58:16;99122.00;;;9.19;50.23
49949;BME280;35840;45.982;8.890;2024-02-14T12:00:45;99124.88;;;9.32;48.49
49949;BME280;35840;45.982;8.890;2024-02-14T12:03:15;99120.19;;;9.21;49.37
49949;BME280;35840;45.982;8.890;2024-02-14T12:05:43;99121.72;;;9.25;49.12
49949;BME280;35840;45.982;8.890;2024-02-14T12:08:11;99102.88;;;9.26;49.75
49949;BME280;35840;45.982;8.890;2024-02-14T12:10:39;99104.72;;;9.43;51.19
49949;BME280;35840;45.982;8.890;2024-02-14T12:13:09;99091.66;;;9.47;49.58
49949;BME280;35840;45.982;8.890;2024-02-14T12:15:39;99089.38;;;9.41;49.21
49949;BME280;35840;45.982;8.890;2024-02-14T12:18:10;99088.31;;;9.45;48.97
49949;BME280;35840;45.982;8.890;2024-02-14T12:20:38;99085.00;;;9.62;51.65
49949;BME280;35840;45.982;8.890;2024-02-14T12:23:05;99084.75;;;9.69;50.10
49949;BME280;35840;45.982;8.890;2024-02-14T12:25:33;99076.97;;;9.70;49.06
49949;BME280;35840;45.982;8.890;2024-02-14T12:28:00;99078.09;;;10.20;51.12
49949;BME280;35840;45.982;8.890;2024-02-14T12:33:13;99076.09;;;10.08;50.04
49949;BME280;35840;45.982;8.890;2024-02-14T12:35:44;99059.56;;;10.50;49.00
49949;BME280;35840;45.982;8.890;2024-02-14T12:38:14;99069.94;;;10.66;48.06
49949;BME280;35840;45.982;8.890;2024-02-14T12:40:42;99065.09;;;10.77;47.17
49949;BME280;35840;45.982;8.890;2024-02-14T12:43:10;99068.94;;;10.51;46.74
49949;BME280;35840;45.982;8.890;2024-02-14T12:45:37;99068.88;;;10.35;44.89
49949;BME280;35840;45.982;8.890;2024-02-14T12:48:06;99077.88;;;10.25;44.65
49949;BME280;35840;45.982;8.890;2024-02-14T12:50:36;99072.72;;;10.25;44.20
49949;BME280;35840;45.982;8.890;2024-02-14T12:53:05;99060.50;;;10.30;44.58
49949;BME280;35840;45.982;8.890;2024-02-14T12:55:32;99046.06;;;10.27;44.58
49949;BME280;35840;45.982;8.890;2024-02-14T12:57:59;99043.41;;;10.29;44.59
49949;BME280;35840;45.982;8.890;2024-02-14T13:00:26;99051.63;;;10.37;44.65
49949;BME280;35840;45.982;8.890;2024-02-14T13:02:53;99050.13;;;10.68;45.68
49949;BME280;35840;45.982;8.890;2024-02-14T13:05:21;99044.78;;;10.89;43.99
49949;BME280;35840;45.982;8.890;2024-02-14T13:07:47;99044.94;;;11.03;45.29
49949;BME280;35840;45.982;8.890;2024-02-14T13:10:14;99037.88;;;11.07;45.96
49949;BME280;35840;45.982;8.890;2024-02-14T13:12:41;99042.78;;;11.45;45.08
49949;BME280;35840;45.982;8.890;2024-02-14T13:15:10;99042.94;;;11.58;45.03
49949;BME280;35840;45.982;8.890;2024-02-14T13:17:37;99046.50;;;11.55;44.44
49949;BME280;35840;45.982;8.890;2024-02-14T13:20:05;99051.19;;;11.80;43.18
49949;BME280;35840;45.982;8.890;2024-02-14T13:22:32;99046.78;;;11.66;43.61